createdAt,value
2019-04-14T00:00:01.927Z,4.25
2019-04-14T00:02:49.799Z,4.56
2019-04-14T00:05:58.358Z,4.49
2019-04-14T00:19:28.375Z,4.38
2019-04-14T00:22:38.088Z,4.31
2019-04-14T00:25:08.675Z,4.14
2019-04-14T00:27:38.865Z,4.53
2019-04-14T00:30:49.099Z,4.43
2019-04-14T00:36:28.286Z,4.66
2019-04-14T00:38:58.315Z,4.64
2019-04-14T00:41:51.932Z,4.79
2019-04-14T00:44:36.523Z,4.82
2019-04-14T00:47:24.650Z,4.85
2019-04-14T00:49:53.107Z,4.85
2019-04-14T00:52:21.616Z,4.79
2019-04-14T00:55:09.695Z,4.57
2019-04-14T00:57:38.259Z,4.49
2019-04-14T01:00:47.333Z,4.47
2019-04-14T01:03:17.756Z,4.35
2019-04-14T01:05:48.116Z,4.68
2019-04-14T01:11:10.037Z,4.20
2019-04-14T01:13:39.656Z,4.38
2019-04-14T01:16:13.931Z,4.09
2019-04-14T01:18:38.890Z,4.34
2019-04-14T01:24:01.045Z,4.52
2019-04-14T01:26:31.120Z,4.32
2019-04-14T01:28:59.585Z,4.34
2019-04-14T01:31:47.425Z,4.18
2019-04-14T01:34:15.867Z,4.16
2019-04-14T01:36:45.311Z,3.88
2019-04-14T01:39:34.930Z,3.97
2019-04-14T01:42:23.181Z,3.89
2019-04-14T01:44:52.534Z,3.93
2019-04-14T01:47:42.059Z,4.24
2019-04-14T01:53:05.394Z,3.80
2019-04-14T01:55:54.827Z,4.06
2019-04-14T01:58:43.147Z,3.92
2019-04-14T02:03:47.767Z,3.78
2019-04-14T02:06:37.644Z,3.82
2019-04-14T02:09:47.146Z,3.90
2019-04-14T02:12:34.816Z,3.69
2019-04-14T02:17:58.889Z,3.96
2019-04-14T02:20:49.054Z,3.89
2019-04-14T02:23:38.576Z,3.87
2019-04-14T02:26:26.966Z,4.29
2019-04-14T02:29:14.766Z,4.33
2019-04-14T02:32:13.881Z,4.06
2019-04-14T02:34:57.326Z,3.74
2019-04-14T02:37:28.321Z,4.24
2019-04-14T02:42:46.764Z,3.98
2019-04-14T02:45:42.904Z,4.07
2019-04-14T02:51:25.592Z,3.52
2019-04-14T02:56:43.414Z,3.51
2019-04-14T03:00:02.741Z,3.53
2019-04-14T03:02:42.571Z,3.75
2019-04-14T03:05:42.280Z,3.66
2019-04-14T03:16:39.739Z,3.61
2019-04-14T03:24:33.757Z,3.58
2019-04-14T03:27:48.243Z,3.75
2019-04-14T03:31:11.226Z,3.97
2019-04-14T03:44:01.573Z,3.86
2019-04-14T03:54:40.585Z,3.63
2019-04-14T03:57:30.079Z,3.67
2019-04-14T04:00:00.618Z,3.92
2019-04-14T04:02:29.694Z,4.09
2019-04-14T04:04:58.251Z,4.18
2019-04-14T04:07:47.422Z,4.03
2019-04-14T04:13:06.267Z,4.01
2019-04-14T04:15:36.502Z,3.61
2019-04-14T04:21:20.661Z,4.19
2019-04-14T04:24:09.056Z,4.31
2019-04-14T04:29:36.047Z,4.34
2019-04-14T04:35:13.138Z,4.24
2019-04-14T04:38:00.945Z,4.09
2019-04-14T04:40:48.773Z,4.34
2019-04-14T04:43:17.327Z,4.31
2019-04-14T04:45:45.810Z,3.90
2019-04-14T04:48:34.870Z,3.84
2019-04-14T04:51:22.993Z,3.83
2019-04-14T04:54:10.707Z,4.00
2019-04-14T04:56:40.446Z,4.36
2019-04-14T04:59:09.812Z,4.26
2019-04-14T05:01:58.923Z,4.18
2019-04-14T05:04:28.573Z,4.10
2019-04-14T05:07:38.329Z,4.39
2019-04-14T05:10:27.053Z,4.15
2019-04-14T05:18:50.895Z,4.56
2019-04-14T05:21:40.924Z,4.53
2019-04-14T05:24:11.328Z,4.81
2019-04-14T05:26:59.872Z,4.39
2019-04-14T05:32:21.617Z,4.32
2019-04-14T05:37:46.412Z,4.41
2019-04-14T05:40:34.765Z,4.63
2019-04-14T05:43:32.266Z,4.54
2019-04-14T05:46:12.108Z,5.04
2019-04-14T05:49:02.192Z,4.86
2019-04-14T05:51:32.621Z,4.63
2019-04-14T05:54:21.083Z,4.66
2019-04-14T05:59:44.061Z,4.40
2019-04-14T06:02:33.594Z,4.71
2019-04-14T06:05:03.718Z,4.74
2019-04-14T06:07:52.468Z,4.90
2019-04-14T06:10:40.274Z,4.74
2019-04-14T06:16:02.496Z,5.20
2019-04-14T06:18:31.091Z,5.11
2019-04-14T06:20:59.573Z,4.80
2019-04-14T06:23:47.464Z,5.02
2019-04-14T06:26:35.268Z,4.84
2019-04-14T06:32:17.360Z,4.85
2019-04-14T06:35:04.956Z,4.94
2019-04-14T06:46:36.397Z,5.10
2019-04-14T06:49:24.267Z,5.38
2019-04-14T06:51:52.750Z,5.33
2019-04-14T06:54:40.436Z,5.17
2019-04-14T06:57:28.169Z,5.49
2019-04-14T06:59:56.763Z,5.38
2019-04-14T07:02:25.252Z,5.62
2019-04-14T07:04:53.805Z,5.64
2019-04-14T07:07:22.347Z,5.41
2019-04-14T07:09:50.977Z,5.30
2019-04-14T07:12:19.441Z,5.51
2019-04-14T07:14:48.026Z,5.39
2019-04-14T07:17:16.508Z,5.40
2019-04-14T07:19:45.061Z,5.65
2019-04-14T07:22:13.658Z,5.59
2019-04-14T07:24:42.144Z,5.25
2019-04-14T07:27:10.618Z,5.33
2019-04-14T07:29:58.341Z,5.35
2019-04-14T07:32:46.017Z,5.62
2019-04-14T07:35:33.757Z,5.73
2019-04-14T07:38:21.414Z,5.60
2019-04-14T07:41:09.142Z,5.66
2019-04-14T07:44:16.106Z,5.86
2019-04-14T07:49:39.032Z,5.79
2019-04-14T07:52:26.701Z,5.70
2019-04-14T07:55:33.698Z,5.63
2019-04-14T08:01:10.514Z,5.88
2019-04-14T08:04:17.519Z,5.98
2019-04-14T08:09:21.620Z,5.86
2019-04-14T08:12:09.293Z,5.77
2019-04-14T08:14:37.822Z,5.69
2019-04-14T08:17:06.330Z,5.78
2019-04-14T08:19:34.893Z,5.84
2019-04-14T08:25:16.167Z,6.15
2019-04-14T08:28:03.971Z,6.04
2019-04-14T08:30:51.779Z,6.16
2019-04-14T08:33:39.626Z,5.81
2019-04-14T08:36:27.431Z,5.83
2019-04-14T08:38:55.958Z,5.87
2019-04-14T08:47:51.047Z,6.80
2019-04-14T08:53:47.156Z,6.81
2019-04-14T08:56:34.764Z,7.08
2019-04-14T08:59:41.658Z,6.87
2019-04-14T09:02:48.590Z,7.14
2019-04-14T09:08:34.965Z,7.42
2019-04-14T09:11:41.899Z,7.68
2019-04-14T09:14:29.736Z,7.73
2019-04-14T09:16:58.221Z,7.66
2019-04-14T09:22:19.991Z,7.61
2019-04-14T09:25:07.797Z,7.71
2019-04-14T09:27:55.478Z,7.73
2019-04-14T09:30:43.319Z,7.51
2019-04-14T09:33:11.794Z,8.14
2019-04-14T09:35:59.589Z,8.17
2019-04-14T09:38:28.073Z,8.50
2019-04-14T09:41:15.939Z,8.45
2019-04-14T09:44:03.743Z,8.53
2019-04-14T09:49:25.678Z,8.35
2019-04-14T09:52:13.534Z,8.13
2019-04-14T09:55:01.338Z,8.63
2019-04-14T09:57:49.188Z,8.77
2019-04-14T10:00:57.584Z,8.41
2019-04-14T10:06:40.879Z,8.51
2019-04-14T10:09:09.022Z,8.55
2019-04-14T10:11:56.910Z,8.64
2019-04-14T10:17:19.064Z,8.94
2019-04-14T10:20:06.902Z,9.09
2019-04-14T10:22:35.394Z,9.05
2019-04-14T10:31:10.516Z,8.08
2019-04-14T10:36:51.418Z,8.88
2019-04-14T10:39:20.180Z,9.57
2019-04-14T10:41:48.823Z,9.41
2019-04-14T10:44:17.316Z,9.34
2019-04-14T10:46:46.001Z,9.33
2019-04-14T10:49:14.632Z,9.66
2019-04-14T10:51:43.259Z,9.76
2019-04-14T10:54:11.934Z,9.26
2019-04-14T10:56:40.554Z,9.42
2019-04-14T10:59:09.106Z,9.29
2019-04-14T11:01:37.783Z,9.77
2019-04-14T11:04:08.001Z,9.99
2019-04-14T11:07:15.113Z,10.02
2019-04-14T11:10:02.792Z,10.03
2019-04-14T11:12:50.641Z,10.56
2019-04-14T11:15:38.452Z,10.72
2019-04-14T11:18:26.180Z,10.49
2019-04-14T11:21:13.853Z,9.99
2019-04-14T11:24:01.627Z,9.93
2019-04-14T11:26:49.360Z,10.09
2019-04-14T11:29:37.418Z,9.94
2019-04-14T11:32:23.864Z,10.27
2019-04-14T11:34:54.086Z,10.16
2019-04-14T11:37:40.519Z,10.36
2019-04-14T11:40:11.216Z,10.36
2019-04-14T11:42:51.598Z,10.54
2019-04-14T11:45:10.328Z,10.65
2019-04-14T11:47:38.857Z,10.86
2019-04-14T11:50:07.983Z,10.59
2019-04-14T11:52:36.542Z,10.90
2019-04-14T11:55:06.273Z,11.03
2019-04-14T11:57:34.764Z,11.13
2019-04-14T12:00:21.691Z,10.64
2019-04-14T12:02:54.540Z,11.02
2019-04-14T12:05:24.644Z,11.13
2019-04-14T12:07:54.784Z,10.95
2019-04-14T12:10:24.320Z,10.77
2019-04-14T12:12:52.810Z,10.93
2019-04-14T12:15:21.313Z,10.54
2019-04-14T12:17:49.780Z,10.67
2019-04-14T12:20:18.246Z,10.89
2019-04-14T12:22:46.889Z,11.04
2019-04-14T12:25:15.422Z,10.94
2019-04-14T12:27:44.327Z,11.47
2019-04-14T12:30:13.801Z,11.70
2019-04-14T12:32:42.917Z,12.10
2019-04-14T12:35:12.293Z,11.73
2019-04-14T12:37:40.881Z,11.58
2019-04-14T12:40:10.534Z,11.39
2019-04-14T12:42:46.693Z,11.74
2019-04-14T12:45:32.358Z,11.60
2019-04-14T12:48:02.506Z,11.63
2019-04-14T12:50:35.395Z,11.45
2019-04-14T12:53:03.998Z,11.37
2019-04-14T12:55:32.520Z,11.56
2019-04-14T12:58:05.303Z,11.42
2019-04-14T13:00:35.395Z,11.30
2019-04-14T13:03:04.349Z,11.44
2019-04-14T13:05:32.818Z,11.83
2019-04-14T13:08:01.281Z,11.66
2019-04-14T13:10:29.999Z,11.51
2019-04-14T13:12:58.523Z,11.53
2019-04-14T13:15:26.997Z,11.54
2019-04-14T13:17:55.486Z,11.34
2019-04-14T13:20:24.013Z,11.73
2019-04-14T13:22:52.467Z,11.43
2019-04-14T13:25:20.978Z,11.53
2019-04-14T13:27:50.492Z,11.66
2019-04-14T13:30:20.762Z,11.71
2019-04-14T13:32:49.252Z,11.65
2019-04-14T13:35:17.718Z,11.54
2019-04-14T13:37:46.183Z,11.79
2019-04-14T13:40:15.059Z,11.67
2019-04-14T13:42:43.525Z,11.58
2019-04-14T13:45:12.222Z,11.63
2019-04-14T13:47:40.770Z,11.65
2019-04-14T13:50:09.421Z,11.50
2019-04-14T13:52:46.699Z,11.63
2019-04-14T13:55:08.744Z,11.67
2019-04-14T13:57:37.207Z,11.72
2019-04-14T14:00:14.014Z,11.91
2019-04-14T14:02:43.420Z,12.16
2019-04-14T14:05:12.616Z,12.15
2019-04-14T14:07:42.133Z,11.61
2019-04-14T14:10:12.534Z,11.66
2019-04-14T14:12:48.226Z,11.66
2019-04-14T14:15:21.553Z,11.46
2019-04-14T14:18:07.761Z,11.28
2019-04-14T14:20:49.844Z,11.39
2019-04-14T14:23:35.330Z,11.61
2019-04-14T14:26:05.507Z,11.48
2019-04-14T14:28:33.967Z,12.02
2019-04-14T14:31:02.488Z,11.82
2019-04-14T14:33:30.943Z,11.33
2019-04-14T14:35:59.415Z,11.46
2019-04-14T14:38:27.918Z,11.50
2019-04-14T14:40:58.085Z,11.84
2019-04-14T14:43:26.543Z,11.71
2019-04-14T14:46:06.281Z,11.54
2019-04-14T14:48:42.545Z,11.55
2019-04-14T14:51:18.461Z,11.80
2019-04-14T14:53:46.926Z,11.68
2019-04-14T14:56:15.560Z,12.01
2019-04-14T14:58:45.468Z,12.21
2019-04-14T15:01:14.341Z,12.15
2019-04-14T15:03:42.871Z,11.90
2019-04-14T15:06:11.367Z,11.66
2019-04-14T15:08:39.838Z,11.40
2019-04-14T15:11:08.303Z,11.32
2019-04-14T15:13:37.036Z,11.44
2019-04-14T15:16:05.739Z,11.44
2019-04-14T15:18:34.275Z,11.45
2019-04-14T15:21:02.935Z,11.67
2019-04-14T15:23:31.466Z,11.94
2019-04-14T15:25:59.997Z,12.01
2019-04-14T15:28:28.616Z,12.14
2019-04-14T15:30:57.073Z,11.91
2019-04-14T15:33:25.533Z,11.42
2019-04-14T15:35:54.053Z,11.37
2019-04-14T15:38:22.580Z,11.25
2019-04-14T15:40:51.112Z,11.26
2019-04-14T15:43:19.613Z,11.21
2019-04-14T15:45:48.087Z,11.34
2019-04-14T15:48:16.551Z,11.42
2019-04-14T15:50:46.390Z,11.67
2019-04-14T15:53:14.921Z,11.64
2019-04-14T15:55:43.455Z,11.01
2019-04-14T15:58:13.595Z,11.18
2019-04-14T16:00:59.708Z,10.97
2019-04-14T16:03:30.268Z,10.98
2019-04-14T16:06:06.499Z,10.87
2019-04-14T16:08:52.766Z,10.73
2019-04-14T16:11:40.061Z,10.88
2019-04-14T16:14:10.306Z,10.89
2019-04-14T16:16:49.226Z,10.74
2019-04-14T16:19:19.460Z,11.00
2019-04-14T16:21:47.921Z,10.86
2019-04-14T16:24:16.390Z,11.00
2019-04-14T16:26:46.673Z,11.06
2019-04-14T16:29:19.200Z,11.07
2019-04-14T16:31:49.326Z,10.85
2019-04-14T16:34:22.336Z,10.85
2019-04-14T16:36:52.243Z,10.70
2019-04-14T16:39:20.841Z,10.42
2019-04-14T16:41:49.682Z,10.24
2019-04-14T16:44:18.222Z,10.06
2019-04-14T16:46:46.678Z,10.10
2019-04-14T16:49:15.241Z,10.03
2019-04-14T16:51:57.217Z,9.87
2019-04-14T16:54:30.169Z,9.92
2019-04-14T16:57:05.731Z,9.73
2019-04-14T16:59:34.193Z,9.55
2019-04-14T17:02:10.733Z,9.38
2019-04-14T17:04:33.144Z,9.18
2019-04-14T17:07:01.588Z,9.16
2019-04-14T17:09:30.077Z,9.25
2019-04-14T17:11:59.415Z,8.97
2019-04-14T17:14:29.595Z,8.97
2019-04-14T17:17:05.766Z,8.90
2019-04-14T17:19:41.777Z,8.76
2019-04-14T17:22:14.864Z,8.69
2019-04-14T17:25:03.334Z,8.73
2019-04-14T17:27:39.519Z,8.79
2019-04-14T17:30:22.466Z,8.67
2019-04-14T17:32:52.599Z,8.58
2019-04-14T17:35:22.725Z,8.67
2019-04-14T17:37:58.464Z,8.82
2019-04-14T17:40:28.626Z,8.90
2019-04-14T17:43:14.082Z,8.39
2019-04-14T17:46:00.284Z,8.26
2019-04-14T17:48:36.336Z,8.40
2019-04-14T17:51:06.561Z,8.24
2019-04-14T17:53:42.672Z,8.12
2019-04-14T17:56:21.535Z,7.95
2019-04-14T17:58:57.968Z,7.96
2019-04-14T18:01:37.061Z,7.97
2019-04-14T18:04:13.117Z,7.86
2019-04-14T18:06:43.277Z,7.80
2019-04-14T18:09:30.957Z,7.78
2019-04-14T18:12:37.780Z,7.84
2019-04-14T18:15:46.180Z,7.61
2019-04-14T18:18:33.763Z,7.51
2019-04-14T18:24:00.989Z,7.27
2019-04-14T18:26:29.461Z,7.28
2019-04-14T18:29:17.080Z,7.24
2019-04-14T18:32:04.652Z,7.12
2019-04-14T18:34:52.264Z,7.09
2019-04-14T18:49:13.430Z,6.74
2019-04-14T18:57:29.307Z,6.89
2019-04-14T19:00:16.974Z,6.61
2019-04-14T19:03:04.880Z,6.53
2019-04-14T19:05:33.404Z,6.48
2019-04-14T19:08:21.150Z,6.27
2019-04-14T19:11:08.746Z,6.30
2019-04-14T19:19:15.415Z,6.21
2019-04-14T19:21:43.872Z,6.24
2019-04-14T19:24:12.389Z,6.31
2019-04-14T19:29:33.976Z,6.37
2019-04-14T19:32:02.503Z,6.33
2019-04-14T19:37:04.660Z,6.12
2019-04-14T19:39:33.159Z,6.23
2019-04-14T19:44:54.622Z,6.26
2019-04-14T19:52:51.534Z,6.36
2019-04-14T19:55:20.865Z,6.33
2019-04-14T19:57:50.192Z,6.28
2019-04-14T20:03:46.126Z,6.14
2019-04-14T20:06:14.581Z,6.11
2019-04-14T20:08:43.056Z,6.05
2019-04-14T20:11:31.226Z,6.07
2019-04-14T20:14:18.872Z,6.02
2019-04-14T20:17:06.553Z,5.95
2019-04-14T20:19:54.192Z,5.71
2019-04-14T20:22:41.843Z,5.54
2019-04-14T20:25:33.957Z,5.30
2019-04-14T20:28:38.156Z,5.10
2019-04-14T20:31:25.801Z,5.13
2019-04-14T20:36:28.589Z,4.91
2019-04-14T20:39:16.273Z,5.01
2019-04-14T20:44:52.032Z,4.86
2019-04-14T20:47:20.498Z,4.77
2019-04-14T20:49:48.954Z,4.76
2019-04-14T20:52:36.868Z,4.72
2019-04-14T20:55:47.269Z,4.67
2019-04-14T20:58:15.496Z,4.67
2019-04-14T21:00:44.023Z,4.78
2019-04-14T21:03:31.719Z,4.88
2019-04-14T21:09:08.485Z,5.03
2019-04-14T21:14:45.273Z,5.48
2019-04-14T21:17:32.851Z,5.61
2019-04-14T21:22:55.863Z,5.94
2019-04-14T21:31:30.982Z,5.84
2019-04-14T21:34:18.547Z,5.91
2019-04-14T21:37:06.160Z,5.37
2019-04-14T21:39:53.799Z,5.13
2019-04-14T21:44:55.891Z,5.06
2019-04-14T21:47:24.357Z,5.25
2019-04-14T21:49:52.810Z,5.24
2019-04-14T21:52:40.772Z,5.26
2019-04-14T21:55:28.477Z,5.28
2019-04-14T21:58:16.159Z,5.28
2019-04-14T22:01:42.332Z,5.43
2019-04-14T22:07:24.932Z,5.39
2019-04-14T22:10:12.751Z,5.63
2019-04-14T22:15:49.492Z,5.43
2019-04-14T22:24:01.941Z,5.58
2019-04-14T22:29:22.758Z,5.48
2019-04-14T22:31:51.338Z,5.47
2019-04-14T22:34:19.785Z,5.62
2019-04-14T22:37:07.457Z,5.40
2019-04-14T22:39:35.913Z,5.13
2019-04-14T22:42:04.437Z,5.18
2019-04-14T22:47:06.703Z,4.84
2019-04-14T22:49:35.175Z,4.88
2019-04-14T22:54:56.846Z,5.15
2019-04-14T22:57:25.310Z,5.05
2019-04-14T23:05:43.282Z,5.12
2019-04-14T23:11:39.310Z,4.96
2019-04-14T23:14:26.879Z,5.01
2019-04-14T23:17:14.633Z,5.00
2019-04-14T23:20:02.196Z,4.89
2019-04-14T23:25:46.020Z,5.06
2019-04-14T23:33:37.580Z,4.96
2019-04-14T23:36:25.392Z,5.16
2019-04-14T23:39:13.033Z,4.84
2019-04-14T23:41:41.652Z,4.76
2019-04-14T23:44:10.101Z,4.42
2019-04-14T23:46:57.943Z,4.36
2019-04-14T23:49:26.420Z,4.50
2019-04-14T23:52:14.096Z,4.60
2019-04-14T23:54:42.582Z,4.49
2019-04-14T23:57:11.102Z,4.44
2019-04-14T23:59:39.607Z,4.33
